Vremea mâine în Negrești Oaș - Romania

Vrei sa afli care e starea vremii acum in Maramures - Romania? Dorim sa iti furnizam starea vremii pentru Maramures - Romania. Starea vremii Maramures - Romania pentru astazi.

Vremea mâine în Negrești Oaș

Temperatura minimă:
7.7 °C

Temperatura maximă:
20.2 °C

Mâine va fi: Patchy rain nearby
Precipitații: 82 %
Umiditate: 72%
Viteza maximă vânt mâine:
14.8 km/h

Evoluția vremii in Negrești Oaș pe ore mâine

Ora: 03:00
Temperatura: °C
Sansa de precipitatii: %
Ora Descriere Temp Se simte Precipitatii Umiditate Vant
00:00Senin8.8°8.1°0%77%E 5.8 KM/H
01:00Senin8.5°7.7°0%77%E 6.1 KM/H
02:00Senin8.1°7.2°0%78%E 6.5 KM/H
03:00Senin6.9°0%78%E 6.8 KM/H
04:00Senin7.8°6.7°0%78%E 7.2 KM/H
05:00Senin7.7°6.5°0%78%E 7.6 KM/H
06:00Senin7.7°6.6°0%79%E 7.2 KM/H
07:00Senin0%78%E 7.6 KM/H
08:00Senin13.5°13.4°0%71%ESE 6.8 KM/H
09:00Senin15.7°15.7°0%65%SE 8.3 KM/H
10:00Senin17.5°17.5°0%60%SSE 10.4 KM/H
11:0019°19°0%56%SSE 12.2 KM/H
12:00Patchy rain nearby19.4°19.4°100%56%S 14.8 KM/H
13:00Patchy rain nearby19°19°100%61%S 11.2 KM/H
14:00Patchy rain nearby20.2°20.2°100%54%SSW 13.3 KM/H
15:00Burniță ușoară19.8°19.8°100%57%WSW 13 KM/H
16:00Patchy rain nearby17.8°17.8°71%71%WNW 4.7 KM/H
17:00Burniță ușoară19.6°19.6°100%61%SW 2.9 KM/H
18:00Patchy rain nearby18.7°18.7°100%68%SSW 4.3 KM/H
19:00Patchy rain nearby17.8°17.8°100%73%SE 5 KM/H
20:00Patchy rain nearby14.7°14.6°100%78%SE 7.6 KM/H
21:00Patchy rain nearby12.3°11.6°100%85%ESE 8.3 KM/H
22:00Patchy light rain in area with thunder11.7°11.2°100%89%S 7.2 KM/H
23:00Ploi usoare12.1°11.8°100%97%SSE 6.5 KM/H




tutorials